Create Tblcommutelog Verified Points Advance Search
| # | Trip ID | Id Commuter | Trip Date | Trip Num | Current Lat | Current Lng | Delta Distance | Current Time | Activity | Activity Confidence | Current Speed | |
|---|---|---|---|---|---|---|---|---|---|---|---|---|
| 69141 | 250918_770164_16637262_1720 | 770164 | (not set) | (not set) | 38.890815867984 | -77.202306926776 | 1.9118 | 2025-09-18 17:30:45 | in_vehicle | 100 | 4.3809847380797 | |
| 69142 | 250918_771892_16639098_1711 | 771892 | (not set) | (not set) | 38.896541564813 | -77.017134367269 | 1.0222 | 2025-09-18 17:30:45 | still | 33 | -0.44703925898772 | |
| 69143 | 250918_771892_16639098_1711 | 771892 | (not set) | (not set) | 38.896541564813 | -77.017134367269 | 1.0222 | 2025-09-18 17:30:46 | still | 33 | -0.44703925898772 | |
| 69144 | 250918_771892_16639098_1711 | 771892 | (not set) | (not set) | 38.896541564813 | -77.017134367269 | 1.0222 | 2025-09-18 17:30:46 | still | 33 | -0.44703925898772 | |
| 69145 | 250918_788592_16657253_1723 | 788592 | (not set) | (not set) | 39.154165665578 | -76.89273964462 | 1.1 | 2025-09-18 17:30:46 | on_bicycle | 100 | 10.746823786065 | |
| 69146 | 250918_785175_16653273_1721 | 785175 | (not set) | (not set) | 38.971379580092 | -76.934327620014 | 0.7528 | 2025-09-18 17:30:14 | on_foot | 100 | 9.6292256385956 | |
| 69147 | 250918_769783_16636848_1708 | 769783 | (not set) | (not set) | 38.971519157774 | -77.015901884097 | 0.8933 | 2025-09-18 17:30:46 | in_vehicle | 100 | 12.043237637129 | |
| 69148 | 250918_769852_16636925_1622 | 769852 | (not set) | (not set) | 38.9924004126 | -77.161320469731 | 9.985 | 2025-09-18 17:30:47 | in_vehicle | 100 | 3.7596001680868 | |
| 69149 | 250918_788567_16657221_1621 | 788567 | (not set) | (not set) | 38.347472071314 | -77.435175151461 | 41.1653 | 2025-09-18 17:30:48 | in_vehicle | 100 | 6.4954804330916 | |
| 69150 | 250918_780947_16648617_1636 | 780947 | (not set) | (not set) | 38.895756174436 | -76.840036619073 | 12.2326 | 2025-09-18 17:30:48 | on_foot | 100 | 0.61244378481318 | |
| 69151 | 250918_775454_16642917_1712 | 775454 | (not set) | (not set) | 39.086066402086 | -77.150547948111 | 2.7258 | 2025-09-18 17:30:48 | in_vehicle | 100 | 1.4305256287607 | |
| 69152 | 250918_731669_16595792_1648 | 731669 | (not set) | (not set) | 38.815324118163 | -77.053247589868 | 7.0528 | 2025-09-18 17:30:47 | in_vehicle | 100 | 7.465555625095 | |
| 69153 | 250918_731669_16595792_1648 | 731669 | (not set) | (not set) | 38.815324118163 | -77.053247589868 | 7.0528 | 2025-09-18 17:30:47 | in_vehicle | 100 | 7.465555625095 | |
| 69154 | 250918_785415_16653553_1655 | 785415 | (not set) | (not set) | 39.296459312045 | -76.665014090671 | 2.9769 | 2025-09-18 17:30:49 | in_vehicle | 100 | 3.8937119457831 | |
| 69155 | 250918_785415_16653553_1655 | 785415 | (not set) | (not set) | 39.296459312045 | -76.665014090671 | 2.9769 | 2025-09-18 17:30:49 | in_vehicle | 100 | 3.8937119457831 | |
| 69156 | 250918_606528_16445554_1613 | 606528 | (not set) | (not set) | 38.754386711577 | -77.496386082031 | 40.0336 | 2025-09-18 17:30:50 | unknown | 100 | 4.076998041968 | |
| 69157 | 250918_770910_16638064_1711 | 770910 | (not set) | (not set) | 38.888677051221 | -77.052432540473 | 7.0078 | 2025-09-18 17:30:50 | in_vehicle | 100 | 5.7578656557619 | |
| 69158 | 250918_772683_16653747_1714 | 772683 | (not set) | (not set) | 38.9559349 | -76.9819747 | 0.9382 | 2025-09-18 17:30:52 | walking | 100 | -0.44703925898772 | |
| 69159 | 250918_746083_16611952_1654 | 746083 | (not set) | (not set) | 38.878209304801 | -77.035626296208 | 3.9138 | 2025-09-18 17:30:51 | unknown | 100 | 7.5504930843027 | |
| 69160 | 250918_741901_16607317_1725 | 741901 | (not set) | (not set) | 38.8938526 | -77.0337528 | 0.5093 | 2025-09-18 17:30:51 | on_bicycle | 100 | 2.2888410060171 |